createdAt,value
2022-08-12T00:00:19.812Z,97368.94
2022-08-12T00:05:56.419Z,97355.28
2022-08-12T00:11:21.201Z,97358.97
2022-08-12T00:16:42.097Z,97355.47
2022-08-12T00:22:02.961Z,97353.31
2022-08-12T00:27:27.401Z,97351.25
2022-08-12T00:33:04.439Z,97347.06
2022-08-12T00:38:25.102Z,97343.63
2022-08-12T00:43:28.594Z,97352.88
2022-08-12T00:48:31.638Z,97343.09
2022-08-12T00:53:34.471Z,97355.13
2022-08-12T00:58:36.395Z,97338.91
2022-08-12T01:03:59.650Z,97341.84
2022-08-12T01:09:25.562Z,97345.38
2022-08-12T01:14:28.489Z,97344.91
2022-08-12T01:19:32.827Z,97336.84
2022-08-12T01:24:57.134Z,97337.94
2022-08-12T01:30:01.559Z,97338.94
2022-08-12T01:35:30.352Z,97335.88
2022-08-12T01:40:37.924Z,97338.88
2022-08-12T01:45:57.432Z,97328.50
2022-08-12T01:52:19.999Z,97331.38
2022-08-12T01:57:57.143Z,97328.00
2022-08-12T02:02:47.866Z,97324.94
2022-08-12T02:08:36.484Z,97318.13
2022-08-12T02:13:57.364Z,97315.47
2022-08-12T02:19:27.683Z,97308.44
2022-08-12T02:24:32.965Z,97312.09
2022-08-12T02:29:35.902Z,97317.69
2022-08-12T02:34:37.849Z,97314.78
2022-08-12T02:39:44.452Z,97302.88
2022-08-12T02:44:50.908Z,97304.13
2022-08-12T02:49:56.498Z,97297.34
2022-08-12T02:55:08.369Z,97300.91
2022-08-12T03:00:11.735Z,97297.63
2022-08-12T03:05:17.915Z,97299.94
2022-08-12T03:10:37.153Z,97295.03
2022-08-12T03:15:40.341Z,97299.72
2022-08-12T03:20:42.182Z,97301.66
2022-08-12T03:25:44.113Z,97303.88
2022-08-12T03:30:54.769Z,97298.63
2022-08-12T03:36:01.511Z,97304.31
2022-08-12T03:41:33.522Z,97291.63
2022-08-12T03:47:00.422Z,97291.03
2022-08-12T03:52:21.834Z,97290.47
2022-08-12T03:57:42.242Z,97298.47
2022-08-12T04:02:57.232Z,97299.03
2022-08-12T04:08:00.028Z,97293.59
2022-08-12T04:13:19.805Z,97295.19
2022-08-12T04:18:23.482Z,97298.03
2022-08-12T04:23:25.919Z,97306.88
2022-08-12T04:28:28.358Z,97311.28
2022-08-12T04:33:32.244Z,97306.84
2022-08-12T04:38:34.630Z,97308.81
2022-08-12T04:44:01.591Z,97304.47
2022-08-12T04:49:02.630Z,97311.19
2022-08-12T04:54:04.989Z,97319.72
2022-08-12T04:59:07.686Z,97321.91
2022-08-12T05:04:10.660Z,97319.53
2022-08-12T05:09:13.630Z,97319.19
2022-08-12T05:14:16.457Z,97311.91
2022-08-12T05:19:22.786Z,97316.56
2022-08-12T05:24:24.631Z,97329.66
2022-08-12T05:30:06.860Z,97331.16
2022-08-12T05:34:51.725Z,97326.91
2022-08-12T05:39:53.562Z,97322.72
2022-08-12T05:44:55.766Z,97338.88
2022-08-12T05:49:59.065Z,97332.47
2022-08-12T05:55:00.890Z,97340.47
2022-08-12T06:00:05.189Z,97342.84
2022-08-12T06:05:13.939Z,97345.78
2022-08-12T06:10:17.595Z,97337.22
2022-08-12T06:15:38.117Z,97335.59
2022-08-12T06:20:41.351Z,97337.56
2022-08-12T06:25:43.587Z,97334.06
2022-08-12T06:30:53.121Z,97332.56
2022-08-12T06:36:08.436Z,97328.88
2022-08-12T06:41:29.986Z,97334.03
2022-08-12T06:46:32.148Z,97330.59
2022-08-12T06:51:34.165Z,97332.09
2022-08-12T07:01:58.259Z,97332.59
2022-08-12T07:07:00.299Z,97319.72
2022-08-12T07:12:02.080Z,97330.56
2022-08-12T07:17:03.827Z,97325.78
2022-08-12T07:22:06.544Z,97314.94
2022-08-12T07:27:08.194Z,97317.56
2022-08-12T07:32:09.905Z,97321.38
2022-08-12T07:37:12.953Z,97314.59
2022-08-12T07:42:14.618Z,97313.56
2022-08-12T07:47:16.360Z,97313.63
2022-08-12T07:52:18.627Z,97323.03
2022-08-12T07:57:20.747Z,97330.94
2022-08-12T08:02:30.696Z,97317.50
2022-08-12T08:07:33.418Z,97315.97
2022-08-12T08:12:53.424Z,97310.28
2022-08-12T08:18:02.732Z,97316.41
2022-08-12T08:23:13.582Z,97306.34
2022-08-12T08:28:18.946Z,97303.59
2022-08-12T08:33:23.493Z,97307.66
2022-08-12T08:38:56.051Z,97324.31
2022-08-12T08:44:01.460Z,97312.50
2022-08-12T08:49:04.923Z,97323.72
2022-08-12T08:54:08.729Z,97302.19
2022-08-12T08:59:11.841Z,97309.19
2022-08-12T09:05:07.917Z,97308.03
2022-08-12T09:10:02.419Z,97303.91
2022-08-12T09:14:59.783Z,97305.28
2022-08-12T09:20:01.804Z,97303.28
2022-08-12T09:25:07.151Z,97315.72
2022-08-12T09:30:15.739Z,97314.94
2022-08-12T09:35:28.251Z,97316.00
2022-08-12T09:41:02.160Z,97311.78
2022-08-12T09:46:11.208Z,97312.22
2022-08-12T09:51:21.707Z,97314.06
2022-08-12T09:56:58.791Z,97304.91
2022-08-12T10:02:41.813Z,97304.38
2022-08-12T10:07:23.076Z,97306.94
2022-08-12T10:13:06.804Z,97311.88
2022-08-12T10:18:08.016Z,97310.91
2022-08-12T10:23:12.561Z,97304.72
2022-08-12T10:28:33.073Z,97289.50
2022-08-12T10:33:43.566Z,97288.94
2022-08-12T10:38:56.679Z,97290.44
2022-08-12T10:43:58.382Z,97291.19
2022-08-12T10:49:06.617Z,97274.75
2022-08-12T10:54:26.865Z,97259.25
2022-08-12T11:00:31.944Z,97276.66
2022-08-12T11:04:52.202Z,97262.75
2022-08-12T11:10:00.679Z,97260.75
2022-08-12T11:15:18.540Z,97253.72
2022-08-12T11:20:24.488Z,97242.88
2022-08-12T11:25:56.697Z,97240.44
2022-08-12T11:30:54.444Z,97230.91
2022-08-12T11:36:03.656Z,97228.84
2022-08-12T11:41:05.668Z,97222.78
2022-08-12T11:46:07.452Z,97200.72
2022-08-12T11:51:11.558Z,97208.91
2022-08-12T11:56:15.242Z,97197.16
2022-08-12T12:01:58.895Z,97191.31
2022-08-12T12:06:38.976Z,97181.41
2022-08-12T12:11:48.970Z,97184.91
2022-08-12T12:16:51.293Z,97183.06
2022-08-12T12:21:53.121Z,97173.59
2022-08-12T12:27:00.602Z,97160.06
2022-08-12T12:32:10.732Z,97171.56
2022-08-12T12:37:16.376Z,97165.41
2022-08-12T12:42:42.073Z,97141.59
2022-08-12T12:47:56.861Z,97149.72
2022-08-12T12:52:59.119Z,97153.13
2022-08-12T12:58:11.144Z,97143.59
2022-08-12T13:03:19.330Z,97129.63
2022-08-12T13:08:35.919Z,97131.34
2022-08-12T13:14:12.078Z,97141.97
2022-08-12T13:18:59.584Z,97145.31
2022-08-12T13:24:09.526Z,97139.38
2022-08-12T13:29:12.920Z,97132.13
2022-08-12T13:34:31.777Z,97124.63
2022-08-12T13:39:36.008Z,97122.44
2022-08-12T13:44:37.713Z,97128.09
2022-08-12T13:49:53.963Z,97110.13
2022-08-12T13:54:58.738Z,97118.81
2022-08-12T14:00:01.678Z,97125.81
2022-08-12T14:05:31.510Z,97123.75
2022-08-12T14:10:52.010Z,97124.28
2022-08-12T14:15:55.862Z,97117.94
2022-08-12T14:21:04.162Z,97126.16
2022-08-12T14:26:12.120Z,97123.50
2022-08-12T14:31:18.219Z,97121.78
2022-08-12T14:36:22.745Z,97129.19
2022-08-12T14:41:37.244Z,97121.50
2022-08-12T14:46:53.113Z,97139.91
2022-08-12T14:52:43.369Z,97134.72
2022-08-12T14:57:23.872Z,97142.41
2022-08-12T15:02:29.561Z,97141.25
2022-08-12T15:07:33.507Z,97145.63
2022-08-12T15:12:46.177Z,97155.63
2022-08-12T15:17:59.162Z,97151.03
2022-08-12T15:23:02.876Z,97160.25
2022-08-12T15:28:20.764Z,97156.94
2022-08-12T15:33:25.232Z,97159.75
2022-08-12T15:38:47.031Z,97149.81
2022-08-12T15:44:15.670Z,97159.44
2022-08-12T15:49:17.048Z,97161.28
2022-08-12T15:54:35.041Z,97152.25
2022-08-12T15:59:51.335Z,97153.03
2022-08-12T16:05:00.202Z,97147.53
2022-08-12T16:10:06.881Z,97148.91
2022-08-12T16:15:11.529Z,97153.44
2022-08-12T16:20:33.145Z,97157.00
2022-08-12T16:26:03.218Z,97148.44
2022-08-12T16:31:00.231Z,97150.06
2022-08-12T16:36:08.098Z,97131.78
2022-08-12T16:41:13.456Z,97128.69
2022-08-12T16:46:31.588Z,97126.91
2022-08-12T16:51:40.314Z,97122.16
2022-08-12T16:56:55.212Z,97116.69
2022-08-12T17:02:00.514Z,97118.63
2022-08-12T17:07:02.887Z,97121.41
2022-08-12T17:12:05.401Z,97118.66
2022-08-12T17:17:09.816Z,97129.44
2022-08-12T17:22:30.369Z,97128.44
2022-08-12T17:27:34.146Z,97124.06
2022-08-12T17:32:39.632Z,97126.72
2022-08-12T17:37:42.933Z,97130.41
2022-08-12T17:42:47.666Z,97129.81
2022-08-12T17:48:01.371Z,97142.94
2022-08-12T17:53:12.456Z,97155.41
2022-08-12T17:58:37.174Z,97154.22
2022-08-12T18:04:05.732Z,97147.56
2022-08-12T18:09:08.870Z,97150.63
2022-08-12T18:14:11.363Z,97165.16
2022-08-12T18:19:17.547Z,97157.13
2022-08-12T18:24:22.175Z,97151.88
2022-08-12T18:29:41.836Z,97159.66
2022-08-12T18:34:45.257Z,97161.00
2022-08-12T18:40:14.939Z,97157.41
2022-08-12T18:45:21.342Z,97163.25
2022-08-12T18:50:24.621Z,97166.03
2022-08-12T18:55:26.996Z,97166.50
2022-08-12T19:00:43.291Z,97165.22
2022-08-12T19:05:54.084Z,97178.66
2022-08-12T19:11:20.408Z,97177.59
2022-08-12T19:16:22.926Z,97177.50
2022-08-12T19:21:25.070Z,97180.09
2022-08-12T19:26:28.062Z,97188.63
2022-08-12T19:31:55.543Z,97185.22
2022-08-12T19:37:04.250Z,97182.38
2022-08-12T19:42:06.530Z,97188.91
2022-08-12T19:47:11.886Z,97189.25
2022-08-12T19:52:21.153Z,97196.19
2022-08-12T19:57:24.047Z,97204.25
2022-08-12T20:02:33.123Z,97200.22
2022-08-12T20:07:42.843Z,97202.31
2022-08-12T20:13:10.115Z,97209.03
2022-08-12T20:18:18.969Z,97204.91
2022-08-12T20:23:37.110Z,97195.25
2022-08-12T20:28:52.880Z,97205.41
2022-08-12T20:33:56.633Z,97201.47
2022-08-12T20:39:00.965Z,97203.13
2022-08-12T20:44:04.509Z,97196.28
2022-08-12T20:49:18.835Z,97208.19
2022-08-12T20:54:22.175Z,97209.53
2022-08-12T20:59:26.413Z,97197.59
2022-08-12T21:04:52.172Z,97187.00
2022-08-12T21:09:53.909Z,97197.34
2022-08-12T21:15:16.671Z,97194.47
2022-08-12T21:20:23.323Z,97204.19
2022-08-12T21:25:36.021Z,97193.53
2022-08-12T21:31:11.483Z,97198.13
2022-08-12T21:36:09.168Z,97201.50
2022-08-12T21:41:24.698Z,97200.31
2022-08-12T21:46:35.017Z,97202.75
2022-08-12T21:51:49.256Z,97203.97
2022-08-12T21:56:53.744Z,97213.22
2022-08-12T22:01:55.585Z,97210.81
2022-08-12T22:06:59.216Z,97208.34
2022-08-12T22:12:21.216Z,97212.00
2022-08-12T22:17:33.912Z,97199.84
2022-08-12T22:22:56.092Z,97197.03
2022-08-12T22:28:17.131Z,97207.94
2022-08-12T22:33:26.416Z,97209.78
2022-08-12T22:38:29.745Z,97204.31
2022-08-12T22:43:59.929Z,97195.63
2022-08-12T22:49:06.368Z,97191.72
2022-08-12T22:54:28.082Z,97182.59
2022-08-12T22:59:51.066Z,97186.38
2022-08-12T23:04:52.321Z,97181.88
2022-08-12T23:09:56.954Z,97181.84
2022-08-12T23:14:58.651Z,97182.28
2022-08-12T23:20:01.655Z,97182.06
2022-08-12T23:25:03.741Z,97170.94
2022-08-12T23:30:18.879Z,97159.34
2022-08-12T23:35:45.929Z,97163.69
2022-08-12T23:40:54.574Z,97173.25
2022-08-12T23:46:00.909Z,97165.16
2022-08-12T23:51:21.715Z,97159.97
2022-08-12T23:56:25.735Z,97163.63
